Terminal Aerodrome Forecast
Issued by NWS

Current Version | Previous Version | Graphics & Text | Print | Product List | Glossary On
Versions: 1 2 3 4 5 6 7 8 9 10 11 12 13 14 15 16 17 18 19 20 21 22 23 24 25
747
FTUS41 KRLX 222134 AAA
TAFCKB
TAF AMD
KCKB 222134Z 2222/2318 23006KT P6SM OVC080
     FM230000 22004KT P6SM BKN025
     FM230400 VRB03KT P6SM OVC035=

USA.gov is the U.S. government's official web portal to all federal, state and local government web resources and services.